Time;durP1;ratioP1;P1;durP2;ratioP2;P2;SDS_P1;SDS_P2;PMS_P1;PMS_P2;Temp;Humidity;BMP_temperature;BMP_pressure;BME280_temperature;BME280_humidity;BME280_pressure;Samples;Min_cycle;Max_cycle;Signal;HPM_P1;HPM_P2
2021/03/07 00:00:58;;;;;;;11.43;6.63;;;;;;;1.34;62.52;100618.66;124530;1109;104259;-77
2021/03/07 00:03:25;;;;;;;10.32;6.85;;;;;;;1.35;62.45;100622.95;124550;1109;102764;-77
2021/03/07 00:05:52;;;;;;;11.53;6.30;;;;;;;1.36;63.02;100615.27;124505;1106;104207;-77
2021/03/07 00:08:21;;;;;;;9.45;6.15;;;;;;;1.38;62.82;100612.70;124536;1106;104281;-77
2021/03/07 00:10:48;;;;;;;11.00;6.00;;;;;;;1.38;62.38;100612.70;124523;1105;104242;-77
2021/03/07 00:13:15;;;;;;;11.67;6.50;;;;;;;1.39;62.62;100609.29;124598;1105;104473;-76
2021/03/07 00:15:42;;;;;;;10.37;5.97;;;;;;;1.41;63.04;100615.30;124544;1105;104213;-78
2021/03/07 00:18:09;;;;;;;11.97;6.30;;;;;;;1.41;62.87;100610.16;124575;1109;104252;-77
2021/03/07 00:20:37;;;;;;;13.13;6.30;;;;;;;1.43;63.05;100613.61;124494;1106;104300;-77
2021/03/07 00:23:04;;;;;;;11.57;6.13;;;;;;;1.43;62.45;100609.33;124878;1105;104137;-76
2021/03/07 00:25:31;;;;;;;11.50;5.87;;;;;;;1.44;62.60;100600.80;124561;1106;104163;-77
2021/03/07 00:27:58;;;;;;;11.80;6.30;;;;;;;1.44;62.72;100599.95;124674;1105;104189;-77
2021/03/07 00:30:25;;;;;;;11.10;6.43;;;;;;;1.43;62.70;100588.77;124631;1105;104264;-76
2021/03/07 00:32:52;;;;;;;10.37;5.77;;;;;;;1.45;62.81;100581.11;124550;1105;104101;-77
2021/03/07 00:35:20;;;;;;;10.80;6.45;;;;;;;1.46;62.77;100593.11;124765;1106;104534;-77
2021/03/07 00:37:47;;;;;;;9.07;5.63;;;;;;;1.45;63.43;100583.67;124733;1105;105309;-77
2021/03/07 00:40:14;;;;;;;11.63;5.83;;;;;;;1.44;63.12;100579.37;124653;1105;104226;-77
2021/03/07 00:42:46;;;;;;;12.70;6.50;;;;;;;1.41;63.24;100579.33;124467;1106;104363;-76
2021/03/07 00:45:15;;;;;;;11.50;6.03;;;;;;;1.40;63.41;100575.89;124592;1105;104130;-77
2021/03/07 00:47:43;;;;;;;12.03;6.53;;;;;;;1.41;63.66;100559.63;124565;1105;104172;-77
2021/03/07 00:50:20;;;;;;;10.23;6.37;;;;;;;1.41;63.69;100580.19;124537;1109;104111;-77
2021/03/07 00:52:47;;;;;;;12.80;6.80;;;;;;;1.41;63.45;100558.77;124523;1105;104273;-76
2021/03/07 00:55:14;;;;;;;11.00;5.80;;;;;;;1.39;63.94;100561.32;124472;1106;104717;-77
2021/03/07 00:57:42;;;;;;;12.80;6.10;;;;;;;1.40;63.66;100565.61;124524;1105;104175;-77
2021/03/07 01:00:17;;;;;;;11.17;6.07;;;;;;;1.40;64.06;100554.47;124578;1105;103970;-77
2021/03/07 01:02:44;;;;;;;13.27;6.50;;;;;;;1.39;64.09;100547.61;124651;1105;104178;-77
2021/03/07 01:05:12;;;;;;;10.53;6.17;;;;;;;1.38;64.54;100540.75;124521;1106;104252;-77
2021/03/07 01:07:40;;;;;;;10.73;6.37;;;;;;;1.40;64.46;100541.63;124545;1106;103107;-77
2021/03/07 01:10:14;;;;;;;8.93;6.07;;;;;;;1.40;65.05;100562.19;124721;1105;104165;-76
2021/03/07 01:12:42;;;;;;;10.13;5.87;;;;;;;1.40;64.94;100536.48;124765;1105;104101;-76
2021/03/07 01:15:10;;;;;;;12.07;6.13;;;;;;;1.40;64.85;100532.20;124552;1108;104272;-77
2021/03/07 01:17:37;;;;;;;9.57;5.70;;;;;;;1.40;65.07;100531.34;124513;1106;104315;-76
2021/03/07 01:20:23;;;;;;;10.23;6.30;;;;;;;1.41;65.42;100527.92;124730;1106;104310;-77
2021/03/07 01:22:54;;;;;;;9.67;5.57;;;;;;;1.43;65.54;100503.09;124615;1105;104184;-77
2021/03/07 01:25:27;;;;;;;10.23;5.63;;;;;;;1.43;65.62;100501.38;124514;1106;104243;-77
2021/03/07 01:27:55;;;;;;;10.63;6.13;;;;;;;1.44;66.18;100507.42;124601;1105;104136;-77
2021/03/07 01:30:23;;;;;;;11.07;6.10;;;;;;;1.42;65.55;100491.95;124729;1105;104204;-77
2021/03/07 01:32:51;;;;;;;10.30;5.53;;;;;;;1.43;65.55;100487.67;124736;1105;104254;-77
2021/03/07 01:35:20;;;;;;;11.33;5.87;;;;;;;1.44;65.88;100492.00;124496;1104;104286;-77
2021/03/07 01:37:49;;;;;;;10.13;5.73;;;;;;;1.44;65.60;100482.58;124548;1106;104175;-76
2021/03/07 01:40:29;;;;;;;9.60;5.97;;;;;;;1.44;66.10;100476.58;124636;1106;104107;-76
2021/03/07 01:42:59;;;;;;;9.07;5.37;;;;;;;1.42;66.14;100479.11;124564;1109;104136;-77
2021/03/07 01:45:29;;;;;;;11.40;6.33;;;;;;;1.41;65.95;100481.66;124520;1105;105223;-77
2021/03/07 01:48:01;;;;;;;11.00;6.07;;;;;;;1.40;65.99;100465.38;124553;1109;104140;-76
2021/03/07 01:50:31;;;;;;;11.50;6.17;;;;;;;1.41;66.16;100458.53;124538;1105;104210;-76
2021/03/07 01:52:59;;;;;;;8.97;5.67;;;;;;;1.42;66.59;100448.27;124582;1105;104121;-77
2021/03/07 01:55:28;;;;;;;10.27;6.67;;;;;;;1.44;66.29;100438.03;124563;1105;104915;-77
2021/03/07 01:58:23;;;;;;;10.27;6.30;;;;;;;1.43;66.73;100443.98;124549;1109;104131;-77
2021/03/07 02:00:50;;;;;;;9.43;5.67;;;;;;;1.43;67.00;100433.70;124485;1109;104169;-77
2021/03/07 02:03:17;;;;;;;11.50;6.80;;;;;;;1.43;67.60;100415.71;124544;1105;105444;-77
2021/03/07 02:05:46;;;;;;;11.73;7.30;;;;;;;1.43;67.11;100428.56;124532;1108;104204;-77
2021/03/07 02:08:15;;;;;;;18.33;7.93;;;;;;;1.41;67.11;100420.84;124666;1105;104147;-77
2021/03/07 02:10:48;;;;;;;9.37;6.67;;;;;;;1.42;67.00;100431.98;124547;1105;104210;-77
2021/03/07 02:13:18;;;;;;;13.40;7.67;;;;;;;1.42;67.47;100414.85;124498;1105;104299;-77
2021/03/07 02:15:49;;;;;;;12.20;7.90;;;;;;;1.43;67.52;100433.70;124513;1105;104118;-76
2021/03/07 02:18:19;;;;;;;13.97;7.47;;;;;;;1.43;67.65;100429.42;124621;1105;104143;-78
2021/03/07 02:20:59;;;;;;;10.93;7.00;;;;;;;1.44;67.63;100438.03;124523;1105;104219;-77
2021/03/07 02:23:30;;;;;;;11.53;7.60;;;;;;;1.43;68.01;100424.28;124565;1105;104140;-77
2021/03/07 02:25:58;;;;;;;14.53;8.67;;;;;;;1.41;68.03;100425.98;124614;1105;103969;-77
2021/03/07 02:28:26;;;;;;;15.30;8.47;;;;;;;1.44;68.09;100417.47;124582;1105;104296;-77
2021/03/07 02:30:54;;;;;;;11.60;7.30;;;;;;;1.45;67.97;100419.19;124786;1105;104203;-77
2021/03/07 02:33:31;;;;;;;16.17;7.67;;;;;;;1.45;67.65;100422.61;124549;1105;104139;-77
2021/03/07 02:36:03;;;;;;;13.27;7.73;;;;;;;1.46;67.98;100418.33;124513;1105;104214;-77
2021/03/07 02:38:36;;;;;;;12.37;7.50;;;;;;;1.45;67.97;100417.47;124688;1105;103951;-77
2021/03/07 02:41:07;;;;;;;14.20;8.70;;;;;;;1.46;67.97;100405.48;124543;1107;104187;-77
2021/03/07 02:43:39;;;;;;;15.83;8.10;;;;;;;1.46;67.81;100402.91;124557;1105;104210;-77
2021/03/07 02:46:09;;;;;;;13.57;7.17;;;;;;;1.46;67.90;100395.20;124545;1105;104140;-77
2021/03/07 02:48:38;;;;;;;14.57;7.80;;;;;;;1.45;68.00;100381.49;124548;1106;104192;-77
2021/03/07 02:51:08;;;;;;;15.00;7.80;;;;;;;1.47;68.14;100394.34;124535;1109;104143;-77
2021/03/07 02:53:38;;;;;;;12.10;7.63;;;;;;;1.47;68.20;100391.78;124568;1106;104139;-77
2021/03/07 02:56:10;;;;;;;13.87;7.40;;;;;;;1.47;67.77;100381.50;124521;1109;104175;-76
2021/03/07 02:58:39;;;;;;;12.80;7.30;;;;;;;1.47;67.93;100387.50;124530;1105;104166;-77
2021/03/07 03:01:11;;;;;;;11.83;7.40;;;;;;;1.47;68.07;100381.50;124708;1105;104130;-76
2021/03/07 03:03:44;;;;;;;12.47;7.97;;;;;;;1.48;68.12;100385.79;124766;1105;104481;-77
2021/03/07 03:06:14;;;;;;;11.37;7.03;;;;;;;1.46;67.97;100374.64;124586;1105;104141;-77
2021/03/07 03:08:45;;;;;;;13.67;7.77;;;;;;;1.45;67.84;100376.35;124577;1106;104193;-77
2021/03/07 03:11:13;;;;;;;12.63;7.53;;;;;;;1.46;67.85;100374.64;124541;1105;104240;-77
2021/03/07 03:13:41;;;;;;;13.07;7.07;;;;;;;1.46;67.74;100374.64;124652;1105;105038;-77
2021/03/07 03:16:09;;;;;;;14.00;6.83;;;;;;;1.46;68.09;100372.07;124496;1109;104172;-76
2021/03/07 03:18:38;;;;;;;14.57;7.43;;;;;;;1.48;68.27;100365.23;124531;1109;104172;-77
2021/03/07 03:21:09;;;;;;;13.57;7.40;;;;;;;1.47;67.98;100379.79;124609;1105;105336;-77
2021/03/07 03:23:37;;;;;;;12.10;7.25;;;;;;;1.47;68.06;100360.94;124641;1109;104306;-76
2021/03/07 03:26:04;;;;;;;13.87;6.83;;;;;;;1.45;68.21;100360.93;124434;1105;104303;-76
2021/03/07 03:28:32;;;;;;;11.10;6.87;;;;;;;1.47;68.05;100346.38;124596;1105;104258;-78
2021/03/07 03:30:59;;;;;;;10.80;6.90;;;;;;;1.48;68.42;100354.95;124512;1109;104024;-77
2021/03/07 03:33:27;;;;;;;9.03;6.30;;;;;;;1.48;67.93;100344.66;124564;1108;104531;-76
2021/03/07 03:35:54;;;;;;;10.67;6.27;;;;;;;1.48;68.07;100324.10;124561;1105;104211;-77
2021/03/07 03:38:31;;;;;;;10.83;5.87;;;;;;;1.49;67.88;100336.96;124526;1105;104281;-76
2021/03/07 03:40:58;;;;;;;11.73;6.50;;;;;;;1.49;67.60;100338.67;124819;1105;104130;-77
2021/03/07 03:43:27;;;;;;;10.33;5.87;;;;;;;1.49;67.87;100336.96;124571;1105;104191;-77
2021/03/07 03:46:01;;;;;;;12.87;6.67;;;;;;;1.49;67.98;100326.68;124580;1106;104179;-76
2021/03/07 03:48:40;;;;;;;9.47;5.90;;;;;;;1.51;67.64;100324.12;124582;1105;104176;-76
2021/03/07 03:51:10;;;;;;;9.70;6.00;;;;;;;1.52;67.94;100328.41;124541;1106;104261;-77
2021/03/07 03:53:40;;;;;;;11.00;5.93;;;;;;;1.53;67.89;100327.55;124518;1105;103944;-77
2021/03/07 03:56:09;;;;;;;9.77;6.40;;;;;;;1.53;67.99;100318.98;124543;1105;104108;-77
2021/03/07 03:58:41;;;;;;;10.27;6.30;;;;;;;1.53;67.56;100313.84;124617;1109;103408;-77
2021/03/07 04:01:11;;;;;;;9.80;6.10;;;;;;;1.55;67.73;100320.70;124604;1109;104354;-76
2021/03/07 04:03:40;;;;;;;10.97;6.07;;;;;;;1.54;67.70;100318.13;124790;1105;104050;-77
2021/03/07 04:06:08;;;;;;;10.70;6.03;;;;;;;1.54;67.90;100297.56;124822;1106;104239;-77
2021/03/07 04:08:36;;;;;;;11.83;6.17;;;;;;;1.55;67.92;100314.70;124561;1105;104375;-77
2021/03/07 04:11:03;;;;;;;13.60;6.30;;;;;;;1.53;67.93;100312.13;124777;1105;104168;-76
2021/03/07 04:13:32;;;;;;;8.60;6.15;;;;;;;1.54;68.47;100318.13;124571;1105;103019;-77
2021/03/07 04:15:59;;;;;;;9.77;6.67;;;;;;;1.53;68.55;100312.13;124574;1109;104287;-76
2021/03/07 04:18:27;;;;;;;9.20;6.10;;;;;;;1.55;68.53;100304.42;124588;1106;104146;-76
2021/03/07 04:20:56;;;;;;;10.07;6.17;;;;;;;1.55;68.29;100289.86;124598;1105;104267;-77
2021/03/07 04:23:23;;;;;;;10.47;6.67;;;;;;;1.55;68.05;100297.57;124867;1105;104104;-76
2021/03/07 04:25:50;;;;;;;10.17;6.63;;;;;;;1.56;68.46;100298.43;124653;1105;104188;-76
2021/03/07 04:28:19;;;;;;;9.83;5.80;;;;;;;1.56;68.39;100275.30;124535;1105;104169;-76
2021/03/07 04:30:47;;;;;;;9.17;5.47;;;;;;;1.56;68.26;100281.30;124632;1105;104144;-77
2021/03/07 04:33:14;;;;;;;9.73;5.33;;;;;;;1.55;68.46;100284.72;124657;1105;104207;-77
2021/03/07 04:35:41;;;;;;;10.97;6.43;;;;;;;1.54;68.38;100292.42;124586;1105;103079;-76
2021/03/07 04:38:09;;;;;;;8.68;6.37;;;;;;;1.56;68.41;100280.44;124522;1109;104339;-77
2021/03/07 04:40:37;;;;;;;7.50;5.87;;;;;;;1.55;68.17;100273.58;124589;1109;104191;-76
2021/03/07 04:43:06;;;;;;;11.40;5.60;;;;;;;1.56;68.11;100268.44;124650;1105;104194;-76
2021/03/07 04:45:33;;;;;;;8.60;5.90;;;;;;;1.56;68.21;100273.59;124540;1105;104370;-77
2021/03/07 04:48:01;;;;;;;10.67;5.83;;;;;;;1.56;68.39;100271.02;124547;1105;104136;-77
2021/03/07 04:50:28;;;;;;;9.10;5.83;;;;;;;1.59;68.17;100283.88;124522;1105;104140;-77
2021/03/07 04:52:55;;;;;;;11.20;5.80;;;;;;;1.59;68.03;100271.02;124490;1106;104134;-76
2021/03/07 04:55:22;;;;;;;10.27;6.00;;;;;;;1.60;68.30;100262.45;124565;1105;104399;-76
2021/03/07 04:57:49;;;;;;;10.63;6.63;;;;;;;1.60;68.31;100265.02;124571;1105;104216;-76
2021/03/07 05:00:18;;;;;;;9.67;5.77;;;;;;;1.59;68.00;100263.31;124534;1109;104712;-77
2021/03/07 05:02:45;;;;;;;7.67;5.60;;;;;;;1.57;68.01;100270.16;124622;1108;104271;-76
2021/03/07 05:05:13;;;;;;;8.90;6.00;;;;;;;1.57;68.27;100244.45;124483;1105;104213;-77
2021/03/07 05:07:40;;;;;;;9.07;5.87;;;;;;;1.59;68.08;100271.02;124692;1105;104176;-77
2021/03/07 05:10:09;;;;;;;8.50;5.47;;;;;;;1.59;68.40;100260.73;124669;1105;104165;-77
2021/03/07 05:12:36;;;;;;;7.53;5.40;;;;;;;1.60;67.97;100246.17;124668;1105;104222;-76
2021/03/07 05:15:07;;;;;;;9.73;5.20;;;;;;;1.60;68.00;100251.31;124484;1109;104287;-77
2021/03/07 05:17:35;;;;;;;11.17;5.50;;;;;;;1.60;67.87;100246.17;124497;1105;104133;-77
2021/03/07 05:20:04;;;;;;;7.50;5.20;;;;;;;1.63;67.71;100241.93;124820;1105;104316;-76
2021/03/07 05:22:33;;;;;;;9.00;5.70;;;;;;;1.65;67.75;100249.64;124826;1105;104121;-76
2021/03/07 05:25:00;;;;;;;9.33;5.97;;;;;;;1.67;67.66;100240.22;124600;1105;104165;-77
2021/03/07 05:27:27;;;;;;;7.93;5.33;;;;;;;1.66;67.68;100241.94;124539;1106;103434;-76
2021/03/07 05:29:54;;;;;;;8.17;5.60;;;;;;;1.69;67.59;100247.09;124749;1105;104162;-76
2021/03/07 05:32:21;;;;;;;8.40;5.70;;;;;;;1.70;67.83;100242.80;124562;1105;104265;-77
2021/03/07 05:34:48;;;;;;;9.43;6.03;;;;;;;1.69;67.34;100241.94;124569;1105;104133;-77
2021/03/07 05:37:16;;;;;;;7.43;5.30;;;;;;;1.71;67.26;100245.38;124569;1106;103587;-77
2021/03/07 05:39:44;;;;;;;8.80;6.00;;;;;;;1.72;67.34;100246.23;124532;1106;104182;-76
2021/03/07 05:42:11;;;;;;;10.63;5.83;;;;;;;1.73;67.11;100242.80;124493;1105;104115;-77
2021/03/07 05:44:39;;;;;;;9.87;5.47;;;;;;;1.73;67.16;100253.09;124763;1105;104102;-76
2021/03/07 05:47:06;;;;;;;8.40;5.55;;;;;;;1.73;67.10;100241.09;124630;1105;104617;-77
2021/03/07 05:49:34;;;;;;;7.55;5.12;;;;;;;1.71;67.18;100235.09;124575;1105;102689;-77
2021/03/07 05:52:01;;;;;;;8.15;5.50;;;;;;;1.72;66.76;100252.23;124765;1105;104306;-77
2021/03/07 05:54:30;;;;;;;6.50;4.87;;;;;;;1.72;66.58;100223.95;124520;1105;104153;-77
2021/03/07 05:57:00;;;;;;;7.03;5.10;;;;;;;1.72;66.61;100244.52;124496;1106;104569;-77
2021/03/07 05:59:30;;;;;;;7.27;5.13;;;;;;;1.73;66.58;100233.37;124620;1105;104108;-77
2021/03/07 06:01:57;;;;;;;7.37;4.80;;;;;;;1.75;66.54;100247.09;124550;1105;104172;-77
2021/03/07 06:04:25;;;;;;;7.40;5.10;;;;;;;1.76;66.14;100242.81;124535;1106;104171;-77
2021/03/07 06:06:52;;;;;;;8.00;5.15;;;;;;;1.78;66.28;100235.95;124539;1106;104137;-78
2021/03/07 06:09:19;;;;;;;8.20;5.10;;;;;;;1.80;66.15;100234.28;124541;1109;104278;-77
2021/03/07 06:11:47;;;;;;;6.70;4.65;;;;;;;1.79;66.60;100225.67;124771;1105;104618;-77
2021/03/07 06:14:33;;;;;;;7.65;4.75;;;;;;;1.79;66.14;100248.81;124552;1108;105338;-77
2021/03/07 06:17:05;;;;;;;6.53;4.90;;;;;;;1.77;66.27;100242.81;124687;1109;103458;-77
2021/03/07 06:20:03;;;;;;;6.87;5.40;;;;;;;1.75;66.50;100234.23;124556;1105;104303;-77
2021/03/07 06:22:32;;;;;;;7.70;5.22;;;;;;;1.75;66.54;100231.67;124567;1106;104217;-77
2021/03/07 06:25:01;;;;;;;8.70;4.80;;;;;;;1.77;66.23;100235.09;124607;1106;104268;-77
2021/03/07 06:27:29;;;;;;;10.13;5.67;;;;;;;1.77;66.19;100241.95;124565;1105;101712;-77
2021/03/07 06:30:07;;;;;;;7.70;4.70;;;;;;;1.79;66.05;100233.39;124568;1105;104216;-77
2021/03/07 06:32:37;;;;;;;6.77;4.50;;;;;;;1.78;65.69;100211.09;124520;1105;104240;-77
2021/03/07 06:35:10;;;;;;;6.80;4.30;;;;;;;1.80;65.30;100229.14;124565;1109;103951;-77
2021/03/07 06:38:08;;;;;;;5.80;4.20;;;;;;;1.81;65.15;100221.42;124495;1106;104133;-76
2021/03/07 06:40:44;;;;;;;6.87;4.17;;;;;;;1.83;65.08;100235.99;124597;1105;104195;-77
2021/03/07 06:43:23;;;;;;;5.53;3.70;;;;;;;1.84;64.63;100230.00;124575;1105;101893;-77
2021/03/07 06:46:26;;;;;;;6.67;4.08;;;;;;;1.87;64.27;100227.42;124534;1105;104537;-76
2021/03/07 06:48:53;;;;;;;6.30;3.80;;;;;;;1.88;64.00;100234.29;124588;1106;104529;-77
2021/03/07 06:51:31;;;;;;;7.50;4.17;;;;;;;1.88;64.01;100236.86;124508;1106;104169;-77
2021/03/07 06:54:13;;;;;;;6.47;3.80;;;;;;;1.89;64.06;100229.14;124554;1105;103101;-76
2021/03/07 06:56:43;;;;;;;4.05;3.65;;;;;;;1.91;64.57;100226.58;124515;1105;102710;-77
2021/03/07 06:59:15;;;;;;;5.97;4.00;;;;;;;1.91;64.69;100219.72;124463;1106;104354;-77
2021/03/07 07:01:48;;;;;;;8.30;4.73;;;;;;;1.91;65.06;100216.29;124562;1104;104171;-77
2021/03/07 07:04:17;;;;;;;7.33;4.47;;;;;;;1.89;65.14;100221.43;124597;1108;105210;-77
2021/03/07 07:07:04;;;;;;;7.03;4.70;;;;;;;1.88;65.26;100219.72;124600;1105;104111;-77
2021/03/07 07:09:35;;;;;;;7.33;4.07;;;;;;;1.88;65.06;100188.00;124526;1106;104212;-77
2021/03/07 07:12:18;;;;;;;6.53;4.57;;;;;;;1.88;65.32;100221.43;124483;1105;104169;-77
2021/03/07 07:14:48;;;;;;;7.13;4.60;;;;;;;1.88;65.10;100211.14;124531;1105;104213;-77
2021/03/07 07:17:18;;;;;;;8.80;5.17;;;;;;;1.89;65.12;100218.86;124484;1106;104207;-77
2021/03/07 07:19:47;;;;;;;7.17;4.60;;;;;;;1.90;65.12;100194.00;124533;1105;104163;-77
2021/03/07 07:22:17;;;;;;;6.70;4.57;;;;;;;1.87;65.09;100194.85;124520;1105;104262;-76
2021/03/07 07:24:45;;;;;;;8.27;4.40;;;;;;;1.87;64.83;100209.42;124527;1106;104261;-77
2021/03/07 07:27:13;;;;;;;6.75;4.20;;;;;;;1.87;64.89;100201.71;124559;1105;104187;-77
2021/03/07 07:29:40;;;;;;;7.03;4.07;;;;;;;1.85;64.57;100190.56;124514;1109;104236;-77
2021/03/07 07:32:28;;;;;;;7.20;4.27;;;;;;;1.85;64.64;100201.71;124546;1106;104111;-77
2021/03/07 07:35:00;;;;;;;8.13;4.20;;;;;;;1.84;64.37;100199.14;124563;1105;104442;-77
2021/03/07 07:37:35;;;;;;;4.93;3.53;;;;;;;1.84;64.08;100204.28;124570;1107;104274;-77
2021/03/07 07:40:03;;;;;;;4.83;3.83;;;;;;;1.85;63.77;100172.56;124569;1105;104208;-77
2021/03/07 07:42:36;;;;;;;6.73;4.20;;;;;;;1.83;63.41;100181.99;124742;1106;104229;-77
2021/03/07 07:45:10;;;;;;;;;;;;;;;1.82;63.52;100175.99;124537;1105;104223;-77
2021/03/07 07:47:45;;;;;;;9.90;4.33;;;;;;;1.80;63.00;100175.99;124539;1106;104210;-77
2021/03/07 07:50:31;;;;;;;8.43;4.07;;;;;;;1.81;63.02;100175.14;124559;1109;104267;-76
2021/03/07 07:53:11;;;;;;;8.63;3.80;;;;;;;1.80;62.75;100175.99;124552;1105;104168;-77
2021/03/07 07:55:45;;;;;;;6.53;3.80;;;;;;;1.81;62.49;100169.13;124557;1105;104139;-76
2021/03/07 07:58:34;;;;;;;7.07;4.00;;;;;;;1.80;62.69;100178.56;124523;1106;104133;-77
2021/03/07 08:01:08;;;;;;;5.73;3.93;;;;;;;1.80;62.61;100183.70;124746;1105;104191;-77
2021/03/07 08:03:41;;;;;;;5.13;3.90;;;;;;;1.81;62.48;100158.85;124542;1105;103976;-76
2021/03/07 08:06:27;;;;;;;7.73;4.23;;;;;;;1.82;62.19;100173.42;124566;1105;104146;-77
2021/03/07 08:08:57;;;;;;;7.20;3.70;;;;;;;1.83;62.28;100182.85;124549;1105;104534;-77
2021/03/07 08:11:24;;;;;;;6.33;3.57;;;;;;;1.86;62.22;100171.70;124542;1109;104220;-77
2021/03/07 08:13:54;;;;;;;5.80;3.90;;;;;;;1.87;61.76;100163.14;124535;1105;104418;-77
2021/03/07 08:16:42;;;;;;;5.90;3.70;;;;;;;1.90;61.74;100152.84;124555;1105;104137;-77
2021/03/07 08:19:37;;;;;;;4.53;3.57;;;;;;;1.89;62.01;100166.56;124563;1109;104095;-76
2021/03/07 08:22:05;;;;;;;5.37;3.70;;;;;;;1.90;61.65;100168.28;124806;1105;104563;-77
2021/03/07 08:24:54;;;;;;;5.37;3.67;;;;;;;1.90;61.50;100168.28;124585;1105;102511;-78
2021/03/07 08:27:39;;;;;;;5.27;3.80;;;;;;;1.90;61.65;100165.70;124607;1106;104376;-77
2021/03/07 08:30:16;;;;;;;4.83;3.70;;;;;;;1.89;61.41;100133.13;124552;1106;104262;-77
2021/03/07 08:32:44;;;;;;;7.17;3.73;;;;;;;1.88;61.39;100169.99;124581;1105;104183;-77
2021/03/07 08:35:22;;;;;;;6.35;3.50;;;;;;;1.86;61.17;100151.99;124627;1105;104127;-77
2021/03/07 08:38:08;;;;;;;7.63;3.80;;;;;;;1.86;61.13;100159.70;124553;1105;104144;-77
2021/03/07 08:40:37;;;;;;;5.33;3.50;;;;;;;1.86;61.10;100141.70;124581;1105;104185;-77
2021/03/07 08:43:23;;;;;;;4.00;3.60;;;;;;;1.87;61.53;100152.84;124553;1109;104653;-77
2021/03/07 08:46:10;;;;;;;7.37;3.80;;;;;;;1.89;61.39;100161.42;124717;1105;104159;-77
2021/03/07 08:48:40;;;;;;;5.27;3.60;;;;;;;1.89;61.18;100161.42;124531;1106;104184;-77
2021/03/07 08:51:11;;;;;;;7.20;4.07;;;;;;;1.88;61.22;100180.28;124616;1106;102837;-77
2021/03/07 08:53:41;;;;;;;6.67;3.47;;;;;;;1.86;61.28;100157.14;124576;1105;104216;-77
2021/03/07 08:56:11;;;;;;;6.73;3.37;;;;;;;1.86;61.24;100153.70;124550;1105;104166;-77
2021/03/07 08:58:39;;;;;;;4.77;3.47;;;;;;;1.83;60.77;100157.14;124559;1109;104114;-77
2021/03/07 09:01:07;;;;;;;7.27;3.20;;;;;;;1.80;60.76;100136.56;124622;1105;104133;-78
2021/03/07 09:03:35;;;;;;;6.03;3.53;;;;;;;1.77;60.81;100155.39;124602;1105;104306;-78
2021/03/07 09:06:10;;;;;;;5.43;3.50;;;;;;;1.74;60.93;100154.53;124484;1105;104281;-77
2021/03/07 09:08:38;;;;;;;7.40;3.60;;;;;;;1.71;60.59;100151.95;124492;1106;104175;-78
2021/03/07 09:11:09;;;;;;;7.47;3.73;;;;;;;1.69;60.86;100163.95;124644;1106;104166;-77
2021/03/07 09:13:47;;;;;;;6.03;3.87;;;;;;;1.69;60.69;100133.96;124483;1109;104541;-77
2021/03/07 09:16:16;;;;;;;6.63;4.20;;;;;;;1.67;60.80;100125.39;124503;1106;104220;-77
2021/03/07 09:18:48;;;;;;;6.77;4.17;;;;;;;1.66;61.27;100128.82;124595;1105;104289;-77
2021/03/07 09:21:19;;;;;;;7.00;3.73;;;;;;;1.66;61.21;100113.39;124530;1109;104264;-77
2021/03/07 09:23:48;;;;;;;8.43;3.90;;;;;;;1.64;61.43;100130.53;124523;1106;104121;-77
2021/03/07 09:26:21;;;;;;;5.97;4.00;;;;;;;1.65;61.43;100121.11;124592;1106;104108;-77
2021/03/07 09:28:53;;;;;;;6.83;4.40;;;;;;;1.63;61.59;100128.82;124601;1105;102915;-78
2021/03/07 09:31:23;;;;;;;7.00;4.23;;;;;;;1.65;61.51;100131.39;124556;1105;104320;-78
2021/03/07 09:34:01;;;;;;;6.77;4.00;;;;;;;1.65;61.67;100131.39;124562;1108;104810;-77
2021/03/07 09:36:30;;;;;;;6.17;3.60;;;;;;;1.66;61.72;100113.39;124605;1106;104265;-78
2021/03/07 09:39:05;;;;;;;8.25;4.10;;;;;;;1.67;61.71;100130.53;124536;1109;104115;-78
2021/03/07 09:41:41;;;;;;;6.27;3.97;;;;;;;1.67;61.19;100129.67;124558;1106;104325;-78
2021/03/07 09:44:16;;;;;;;7.43;4.70;;;;;;;1.67;61.28;100124.53;124529;1109;104114;-77
2021/03/07 09:46:48;;;;;;;7.67;4.43;;;;;;;1.66;61.53;100103.11;124520;1109;104246;-77
2021/03/07 09:49:24;;;;;;;6.70;4.07;;;;;;;1.66;61.43;100122.82;124553;1106;104582;-77
2021/03/07 09:51:52;;;;;;;;;;;;;;;1.65;61.65;100121.11;124571;1105;104277;-77
2021/03/07 09:54:20;;;;;;;9.67;4.50;;;;;;;1.63;61.76;100112.53;124554;1106;104165;-78
2021/03/07 09:56:52;;;;;;;9.90;5.00;;;;;;;1.64;61.56;100104.83;124573;1109;104139;-77
2021/03/07 09:59:24;;;;;;;11.53;4.63;;;;;;;1.64;61.78;100107.39;124588;1109;104717;-78
2021/03/07 10:02:00;;;;;;;7.70;4.73;;;;;;;1.64;61.65;100107.39;124558;1107;103951;-78
2021/03/07 10:04:35;;;;;;;6.87;4.78;;;;;;;1.64;61.94;100111.68;124564;1105;104145;-77
2021/03/07 10:07:12;;;;;;;6.83;4.50;;;;;;;1.66;61.83;100115.97;124509;1109;104209;-77
2021/03/07 10:09:59;;;;;;;8.77;4.73;;;;;;;1.68;62.18;100127.11;124754;1106;103017;-77
2021/03/07 10:12:50;;;;;;;6.60;4.58;;;;;;;1.72;61.70;100115.11;124571;1105;104246;-77
2021/03/07 10:15:33;;;;;;;8.03;4.60;;;;;;;1.73;61.76;100116.82;124526;1109;104141;-76
2021/03/07 10:18:16;;;;;;;11.13;4.90;;;;;;;1.71;62.10;100103.97;124540;1106;104187;-77
2021/03/07 10:20:48;;;;;;;10.37;5.10;;;;;;;1.70;62.25;100104.83;124563;1106;104203;-78
2021/03/07 10:23:18;;;;;;;10.00;5.87;;;;;;;1.71;62.09;100119.39;124565;1105;104105;-77
2021/03/07 10:25:49;;;;;;;8.60;4.77;;;;;;;1.73;62.34;100102.25;124571;1106;104583;-77
2021/03/07 10:28:33;;;;;;;9.00;5.23;;;;;;;1.75;62.42;100100.53;124558;1105;104192;-77
2021/03/07 10:31:09;;;;;;;11.60;6.20;;;;;;;1.75;62.43;100103.11;124531;1105;104624;-77
2021/03/07 10:33:39;;;;;;;6.40;4.92;;;;;;;1.77;62.23;100116.81;124632;1105;104251;-77
2021/03/07 10:36:17;;;;;;;8.20;5.00;;;;;;;1.77;62.37;100115.96;124737;1105;104643;-77
2021/03/07 10:38:49;;;;;;;8.95;5.30;;;;;;;1.78;62.50;100110.82;124549;1105;104342;-77
2021/03/07 10:41:20;;;;;;;8.60;5.00;;;;;;;1.79;62.70;100109.11;124543;1105;104133;-77
2021/03/07 10:43:52;;;;;;;10.93;5.53;;;;;;;1.78;62.78;100109.96;124557;1106;104158;-77
2021/03/07 10:46:38;;;;;;;10.27;5.17;;;;;;;1.78;62.69;100107.39;124571;1109;104220;-77
2021/03/07 10:49:21;;;;;;;9.93;5.43;;;;;;;1.76;62.54;100099.68;124556;1105;104252;-76
2021/03/07 10:51:49;;;;;;;7.23;4.83;;;;;;;1.76;62.67;100102.25;124535;1105;104265;-77
2021/03/07 10:54:16;;;;;;;9.37;5.77;;;;;;;1.74;62.58;100088.53;124661;1105;104216;-77
2021/03/07 10:56:43;;;;;;;8.97;5.40;;;;;;;1.73;62.75;100104.83;124531;1105;104274;-76
2021/03/07 10:59:10;;;;;;;9.87;4.93;;;;;;;1.71;62.83;100096.25;124534;1105;104606;-77
2021/03/07 11:01:38;;;;;;;13.80;5.60;;;;;;;1.72;63.07;100089.39;124565;1109;104277;-77
2021/03/07 11:04:07;;;;;;;11.67;5.30;;;;;;;1.72;63.13;100086.83;124461;1108;104217;-76
2021/03/07 11:06:34;;;;;;;8.60;5.23;;;;;;;1.72;63.38;100099.68;124496;1106;104169;-77
2021/03/07 11:09:03;;;;;;;10.83;5.63;;;;;;;1.71;63.23;100069.69;124529;1106;104140;-77
2021/03/07 11:11:34;;;;;;;8.90;4.77;;;;;;;1.70;63.25;100067.98;124574;1105;104134;-77
2021/03/07 11:14:02;;;;;;;10.13;5.60;;;;;;;1.68;63.36;100088.54;124761;1105;104333;-77
2021/03/07 11:16:29;;;;;;;10.33;6.73;;;;;;;1.69;63.29;100067.12;124482;1106;104129;-77
2021/03/07 11:19:16;;;;;;;11.03;6.57;;;;;;;1.70;63.25;100078.25;124558;1106;104169;-77
2021/03/07 11:21:43;;;;;;;10.53;5.80;;;;;;;1.68;63.31;100057.69;124531;1109;104259;-78
2021/03/07 11:24:10;;;;;;;10.07;5.90;;;;;;;1.67;63.17;100053.41;124537;1105;101678;-78
2021/03/07 11:26:37;;;;;;;12.43;6.10;;;;;;;1.71;63.42;100067.97;124544;1106;104146;-78
2021/03/07 11:29:05;;;;;;;10.10;5.67;;;;;;;1.76;63.38;100068.82;124553;1105;104245;-77
2021/03/07 11:31:33;;;;;;;9.63;5.53;;;;;;;1.82;62.99;100062.84;124616;1106;104137;-77
2021/03/07 11:34:00;;;;;;;11.03;5.50;;;;;;;1.88;63.08;100062.84;124581;1106;104708;-77